sensor_id;sensor_type;location;lat;lon;timestamp;P1;durP1;ratioP1;P2;durP2;ratioP2
10934;SDS011;5520;45.752;4.874;2022-11-20T00:01:12;5.77;;;3.00;;
10934;SDS011;5520;45.752;4.874;2022-11-20T00:03:40;4.73;;;3.30;;
10934;SDS011;5520;45.752;4.874;2022-11-20T00:06:09;6.30;;;3.50;;
10934;SDS011;5520;45.752;4.874;2022-11-20T00:08:38;5.33;;;2.70;;
10934;SDS011;5520;45.752;4.874;2022-11-20T00:11:08;3.33;;;2.67;;
10934;SDS011;5520;45.752;4.874;2022-11-20T00:13:41;4.03;;;2.67;;
10934;SDS011;5520;45.752;4.874;2022-11-20T00:16:10;3.93;;;2.30;;
10934;SDS011;5520;45.752;4.874;2022-11-20T00:18:38;4.83;;;3.00;;
10934;SDS011;5520;45.752;4.874;2022-11-20T00:21:07;4.27;;;2.67;;
10934;SDS011;5520;45.752;4.874;2022-11-20T00:23:35;3.37;;;2.37;;
10934;SDS011;5520;45.752;4.874;2022-11-20T00:26:03;4.60;;;2.37;;
10934;SDS011;5520;45.752;4.874;2022-11-20T00:28:33;4.57;;;2.00;;
10934;SDS011;5520;45.752;4.874;2022-11-20T00:31:01;2.73;;;2.50;;
10934;SDS011;5520;45.752;4.874;2022-11-20T00:33:30;4.93;;;2.47;;
10934;SDS011;5520;45.752;4.874;2022-11-20T00:36:01;3.90;;;2.27;;
10934;SDS011;5520;45.752;4.874;2022-11-20T00:38:30;2.83;;;2.30;;
10934;SDS011;5520;45.752;4.874;2022-11-20T00:40:58;2.43;;;2.20;;
10934;SDS011;5520;45.752;4.874;2022-11-20T00:43:27;4.23;;;3.20;;
10934;SDS011;5520;45.752;4.874;2022-11-20T00:46:00;3.67;;;2.63;;
10934;SDS011;5520;45.752;4.874;2022-11-20T00:48:28;3.93;;;3.10;;
10934;SDS011;5520;45.752;4.874;2022-11-20T00:50:56;3.77;;;3.23;;
10934;SDS011;5520;45.752;4.874;2022-11-20T00:53:24;4.77;;;3.20;;
10934;SDS011;5520;45.752;4.874;2022-11-20T00:55:55;4.70;;;3.00;;
10934;SDS011;5520;45.752;4.874;2022-11-20T00:58:24;5.90;;;3.77;;
10934;SDS011;5520;45.752;4.874;2022-11-20T01:00:54;3.57;;;3.27;;
10934;SDS011;5520;45.752;4.874;2022-11-20T01:03:30;5.20;;;3.03;;
10934;SDS011;5520;45.752;4.874;2022-11-20T01:05:59;6.10;;;3.60;;
10934;SDS011;5520;45.752;4.874;2022-11-20T01:08:29;6.00;;;3.30;;
10934;SDS011;5520;45.752;4.874;2022-11-20T01:10:58;7.53;;;3.73;;
10934;SDS011;5520;45.752;4.874;2022-11-20T01:13:29;4.07;;;2.50;;
10934;SDS011;5520;45.752;4.874;2022-11-20T01:16:07;3.47;;;3.00;;
10934;SDS011;5520;45.752;4.874;2022-11-20T01:18:37;5.13;;;3.47;;
10934;SDS011;5520;45.752;4.874;2022-11-20T01:21:06;5.17;;;2.80;;
10934;SDS011;5520;45.752;4.874;2022-11-20T01:23:35;5.50;;;3.50;;
10934;SDS011;5520;45.752;4.874;2022-11-20T01:26:03;3.40;;;3.10;;
10934;SDS011;5520;45.752;4.874;2022-11-20T01:28:32;5.57;;;3.80;;
10934;SDS011;5520;45.752;4.874;2022-11-20T01:31:00;6.30;;;3.77;;
10934;SDS011;5520;45.752;4.874;2022-11-20T01:33:28;7.97;;;4.00;;
10934;SDS011;5520;45.752;4.874;2022-11-20T01:36:04;5.27;;;3.63;;
10934;SDS011;5520;45.752;4.874;2022-11-20T01:38:32;4.73;;;2.83;;
10934;SDS011;5520;45.752;4.874;2022-11-20T01:41:01;6.60;;;4.00;;
10934;SDS011;5520;45.752;4.874;2022-11-20T01:43:29;6.30;;;3.53;;
10934;SDS011;5520;45.752;4.874;2022-11-20T01:45:56;4.67;;;3.80;;
10934;SDS011;5520;45.752;4.874;2022-11-20T01:48:26;6.47;;;3.80;;
10934;SDS011;5520;45.752;4.874;2022-11-20T01:50:55;5.17;;;3.30;;
10934;SDS011;5520;45.752;4.874;2022-11-20T01:53:27;6.70;;;3.30;;
10934;SDS011;5520;45.752;4.874;2022-11-20T01:55:57;4.67;;;2.90;;
10934;SDS011;5520;45.752;4.874;2022-11-20T01:58:27;7.20;;;3.03;;
10934;SDS011;5520;45.752;4.874;2022-11-20T02:00:56;6.03;;;3.47;;
10934;SDS011;5520;45.752;4.874;2022-11-20T02:03:24;4.03;;;3.20;;
10934;SDS011;5520;45.752;4.874;2022-11-20T02:05:53;6.43;;;3.27;;
10934;SDS011;5520;45.752;4.874;2022-11-20T02:08:23;5.93;;;3.43;;
10934;SDS011;5520;45.752;4.874;2022-11-20T02:10:52;5.60;;;3.20;;
10934;SDS011;5520;45.752;4.874;2022-11-20T02:13:20;4.50;;;2.90;;
10934;SDS011;5520;45.752;4.874;2022-11-20T02:16:08;3.43;;;2.90;;
10934;SDS011;5520;45.752;4.874;2022-11-20T02:18:36;4.87;;;3.00;;
10934;SDS011;5520;45.752;4.874;2022-11-20T02:21:05;4.33;;;2.87;;
10934;SDS011;5520;45.752;4.874;2022-11-20T02:23:36;3.70;;;3.07;;
10934;SDS011;5520;45.752;4.874;2022-11-20T02:26:07;7.10;;;3.87;;
10934;SDS011;5520;45.752;4.874;2022-11-20T02:28:36;6.00;;;3.20;;
10934;SDS011;5520;45.752;4.874;2022-11-20T02:31:04;4.63;;;3.03;;
10934;SDS011;5520;45.752;4.874;2022-11-20T02:33:32;4.13;;;3.07;;
10934;SDS011;5520;45.752;4.874;2022-11-20T02:36:00;2.93;;;2.70;;
10934;SDS011;5520;45.752;4.874;2022-11-20T02:38:28;3.47;;;3.13;;
10934;SDS011;5520;45.752;4.874;2022-11-20T02:40:56;5.47;;;3.53;;
10934;SDS011;5520;45.752;4.874;2022-11-20T02:43:26;4.73;;;2.97;;
10934;SDS011;5520;45.752;4.874;2022-11-20T02:45:54;5.27;;;3.07;;
10934;SDS011;5520;45.752;4.874;2022-11-20T02:48:22;4.80;;;3.20;;
10934;SDS011;5520;45.752;4.874;2022-11-20T02:50:51;6.47;;;3.30;;
10934;SDS011;5520;45.752;4.874;2022-11-20T02:53:19;3.13;;;2.77;;
10934;SDS011;5520;45.752;4.874;2022-11-20T02:55:47;8.40;;;3.37;;
10934;SDS011;5520;45.752;4.874;2022-11-20T02:58:15;4.60;;;3.27;;
10934;SDS011;5520;45.752;4.874;2022-11-20T03:00:44;4.17;;;2.60;;
10934;SDS011;5520;45.752;4.874;2022-11-20T03:03:12;6.93;;;3.20;;
10934;SDS011;5520;45.752;4.874;2022-11-20T03:05:59;7.57;;;3.13;;
10934;SDS011;5520;45.752;4.874;2022-11-20T03:08:27;4.77;;;2.77;;
10934;SDS011;5520;45.752;4.874;2022-11-20T03:10:55;4.00;;;2.83;;
10934;SDS011;5520;45.752;4.874;2022-11-20T03:13:24;4.83;;;2.77;;
10934;SDS011;5520;45.752;4.874;2022-11-20T03:15:52;4.37;;;3.27;;
10934;SDS011;5520;45.752;4.874;2022-11-20T03:18:20;4.07;;;2.90;;
10934;SDS011;5520;45.752;4.874;2022-11-20T03:20:48;3.93;;;2.70;;
10934;SDS011;5520;45.752;4.874;2022-11-20T03:23:18;4.87;;;3.20;;
10934;SDS011;5520;45.752;4.874;2022-11-20T03:25:46;3.47;;;2.90;;
10934;SDS011;5520;45.752;4.874;2022-11-20T03:28:13;6.30;;;3.30;;
10934;SDS011;5520;45.752;4.874;2022-11-20T03:30:41;7.30;;;3.83;;
10934;SDS011;5520;45.752;4.874;2022-11-20T03:33:09;3.47;;;3.17;;
10934;SDS011;5520;45.752;4.874;2022-11-20T03:35:37;3.33;;;2.90;;
10934;SDS011;5520;45.752;4.874;2022-11-20T03:38:05;5.67;;;2.70;;
10934;SDS011;5520;45.752;4.874;2022-11-20T03:40:35;5.17;;;3.00;;
10934;SDS011;5520;45.752;4.874;2022-11-20T03:43:03;4.43;;;3.13;;
10934;SDS011;5520;45.752;4.874;2022-11-20T03:45:31;6.03;;;3.20;;
10934;SDS011;5520;45.752;4.874;2022-11-20T03:47:58;7.23;;;3.50;;
10934;SDS011;5520;45.752;4.874;2022-11-20T03:50:26;5.87;;;3.50;;
10934;SDS011;5520;45.752;4.874;2022-11-20T03:52:54;4.63;;;2.63;;
10934;SDS011;5520;45.752;4.874;2022-11-20T03:55:22;5.10;;;3.23;;
10934;SDS011;5520;45.752;4.874;2022-11-20T03:57:52;3.40;;;3.10;;
10934;SDS011;5520;45.752;4.874;2022-11-20T04:00:20;3.90;;;3.30;;
10934;SDS011;5520;45.752;4.874;2022-11-20T04:02:48;5.13;;;3.87;;
10934;SDS011;5520;45.752;4.874;2022-11-20T04:05:16;4.30;;;3.07;;
10934;SDS011;5520;45.752;4.874;2022-11-20T04:07:44;3.40;;;2.47;;
10934;SDS011;5520;45.752;4.874;2022-11-20T04:10:12;4.30;;;3.23;;
10934;SDS011;5520;45.752;4.874;2022-11-20T04:12:40;3.93;;;3.00;;
10934;SDS011;5520;45.752;4.874;2022-11-20T04:15:10;4.57;;;2.77;;
10934;SDS011;5520;45.752;4.874;2022-11-20T04:17:37;5.87;;;2.70;;
10934;SDS011;5520;45.752;4.874;2022-11-20T04:20:06;2.90;;;2.70;;
10934;SDS011;5520;45.752;4.874;2022-11-20T04:22:34;5.80;;;3.20;;
10934;SDS011;5520;45.752;4.874;2022-11-20T04:25:02;3.03;;;2.70;;
10934;SDS011;5520;45.752;4.874;2022-11-20T04:27:30;3.77;;;2.77;;
10934;SDS011;5520;45.752;4.874;2022-11-20T04:29:58;4.20;;;2.67;;
10934;SDS011;5520;45.752;4.874;2022-11-20T04:32:27;4.53;;;3.17;;
10934;SDS011;5520;45.752;4.874;2022-11-20T04:34:55;4.20;;;3.10;;
10934;SDS011;5520;45.752;4.874;2022-11-20T04:37:23;3.67;;;2.90;;
10934;SDS011;5520;45.752;4.874;2022-11-20T04:39:51;3.90;;;3.10;;
10934;SDS011;5520;45.752;4.874;2022-11-20T04:42:19;3.97;;;3.27;;
10934;SDS011;5520;45.752;4.874;2022-11-20T04:44:57;4.57;;;3.00;;
10934;SDS011;5520;45.752;4.874;2022-11-20T04:47:25;3.77;;;2.57;;
10934;SDS011;5520;45.752;4.874;2022-11-20T04:49:57;2.97;;;2.63;;
10934;SDS011;5520;45.752;4.874;2022-11-20T04:52:25;4.13;;;2.97;;
10934;SDS011;5520;45.752;4.874;2022-11-20T04:54:56;7.07;;;3.20;;
10934;SDS011;5520;45.752;4.874;2022-11-20T04:57:24;3.23;;;2.90;;
10934;SDS011;5520;45.752;4.874;2022-11-20T04:59:52;4.47;;;2.83;;
10934;SDS011;5520;45.752;4.874;2022-11-20T05:02:21;5.60;;;3.00;;
10934;SDS011;5520;45.752;4.874;2022-11-20T05:04:49;4.00;;;3.00;;
10934;SDS011;5520;45.752;4.874;2022-11-20T05:07:18;4.53;;;3.13;;
10934;SDS011;5520;45.752;4.874;2022-11-20T05:09:46;6.97;;;3.10;;
10934;SDS011;5520;45.752;4.874;2022-11-20T05:12:15;4.33;;;3.43;;
10934;SDS011;5520;45.752;4.874;2022-11-20T05:14:42;4.33;;;2.80;;
10934;SDS011;5520;45.752;4.874;2022-11-20T05:17:11;4.43;;;2.90;;
10934;SDS011;5520;45.752;4.874;2022-11-20T05:19:39;6.63;;;3.33;;
10934;SDS011;5520;45.752;4.874;2022-11-20T05:22:07;5.47;;;3.37;;
10934;SDS011;5520;45.752;4.874;2022-11-20T05:24:36;4.30;;;3.27;;
10934;SDS011;5520;45.752;4.874;2022-11-20T05:27:04;3.80;;;3.00;;
10934;SDS011;5520;45.752;4.874;2022-11-20T05:29:32;4.20;;;2.73;;
10934;SDS011;5520;45.752;4.874;2022-11-20T05:32:00;4.80;;;3.43;;
10934;SDS011;5520;45.752;4.874;2022-11-20T05:34:28;3.23;;;2.93;;
10934;SDS011;5520;45.752;4.874;2022-11-20T05:36:56;3.80;;;3.30;;
10934;SDS011;5520;45.752;4.874;2022-11-20T05:39:24;4.73;;;3.00;;
10934;SDS011;5520;45.752;4.874;2022-11-20T05:41:53;3.33;;;2.77;;
10934;SDS011;5520;45.752;4.874;2022-11-20T05:44:35;5.20;;;3.10;;
10934;SDS011;5520;45.752;4.874;2022-11-20T05:47:03;3.67;;;3.13;;
10934;SDS011;5520;45.752;4.874;2022-11-20T05:49:31;7.07;;;3.23;;
10934;SDS011;5520;45.752;4.874;2022-11-20T05:51:59;4.10;;;3.70;;
10934;SDS011;5520;45.752;4.874;2022-11-20T05:54:27;5.20;;;3.20;;
10934;SDS011;5520;45.752;4.874;2022-11-20T05:56:56;7.80;;;3.43;;
10934;SDS011;5520;45.752;4.874;2022-11-20T05:59:24;5.30;;;3.40;;
10934;SDS011;5520;45.752;4.874;2022-11-20T06:01:52;3.77;;;3.17;;
10934;SDS011;5520;45.752;4.874;2022-11-20T06:04:20;3.07;;;2.77;;
10934;SDS011;5520;45.752;4.874;2022-11-20T06:06:49;5.27;;;3.00;;
10934;SDS011;5520;45.752;4.874;2022-11-20T06:09:16;4.23;;;3.30;;
10934;SDS011;5520;45.752;4.874;2022-11-20T06:11:45;5.80;;;3.00;;
10934;SDS011;5520;45.752;4.874;2022-11-20T06:14:14;4.73;;;4.03;;
10934;SDS011;5520;45.752;4.874;2022-11-20T06:16:42;8.17;;;3.53;;
10934;SDS011;5520;45.752;4.874;2022-11-20T06:19:10;3.67;;;3.33;;
10934;SDS011;5520;45.752;4.874;2022-11-20T06:21:38;4.67;;;3.40;;
10934;SDS011;5520;45.752;4.874;2022-11-20T06:24:06;7.03;;;3.17;;
10934;SDS011;5520;45.752;4.874;2022-11-20T06:26:36;5.10;;;4.27;;
10934;SDS011;5520;45.752;4.874;2022-11-20T06:29:04;4.37;;;3.83;;
10934;SDS011;5520;45.752;4.874;2022-11-20T06:31:33;3.97;;;3.30;;
10934;SDS011;5520;45.752;4.874;2022-11-20T06:34:04;8.07;;;3.87;;
10934;SDS011;5520;45.752;4.874;2022-11-20T06:36:34;4.10;;;3.50;;
10934;SDS011;5520;45.752;4.874;2022-11-20T06:39:03;3.73;;;3.43;;
10934;SDS011;5520;45.752;4.874;2022-11-20T06:41:31;6.50;;;3.93;;
10934;SDS011;5520;45.752;4.874;2022-11-20T06:43:59;6.17;;;3.50;;
10934;SDS011;5520;45.752;4.874;2022-11-20T06:46:27;6.40;;;3.57;;
10934;SDS011;5520;45.752;4.874;2022-11-20T06:48:56;6.10;;;3.73;;
10934;SDS011;5520;45.752;4.874;2022-11-20T06:51:24;10.73;;;3.83;;
10934;SDS011;5520;45.752;4.874;2022-11-20T06:53:52;5.67;;;3.50;;
10934;SDS011;5520;45.752;4.874;2022-11-20T06:56:20;4.60;;;3.40;;
10934;SDS011;5520;45.752;4.874;2022-11-20T06:58:50;6.17;;;3.90;;
10934;SDS011;5520;45.752;4.874;2022-11-20T07:01:18;8.70;;;4.47;;
10934;SDS011;5520;45.752;4.874;2022-11-20T07:03:48;7.73;;;3.70;;
10934;SDS011;5520;45.752;4.874;2022-11-20T07:06:21;4.93;;;3.97;;
10934;SDS011;5520;45.752;4.874;2022-11-20T07:08:50;7.57;;;4.23;;
10934;SDS011;5520;45.752;4.874;2022-11-20T07:11:18;6.63;;;4.00;;
10934;SDS011;5520;45.752;4.874;2022-11-20T07:13:46;5.00;;;4.30;;
10934;SDS011;5520;45.752;4.874;2022-11-20T07:16:14;10.47;;;4.17;;
10934;SDS011;5520;45.752;4.874;2022-11-20T07:18:42;6.80;;;3.97;;
10934;SDS011;5520;45.752;4.874;2022-11-20T07:21:15;7.33;;;3.87;;
10934;SDS011;5520;45.752;4.874;2022-11-20T07:23:45;6.77;;;3.60;;
10934;SDS011;5520;45.752;4.874;2022-11-20T07:26:13;6.67;;;4.67;;
10934;SDS011;5520;45.752;4.874;2022-11-20T07:28:43;5.40;;;4.60;;
10934;SDS011;5520;45.752;4.874;2022-11-20T07:31:11;6.10;;;4.17;;
10934;SDS011;5520;45.752;4.874;2022-11-20T07:33:44;7.30;;;5.10;;
10934;SDS011;5520;45.752;4.874;2022-11-20T07:36:12;5.60;;;4.23;;
10934;SDS011;5520;45.752;4.874;2022-11-20T07:38:40;6.77;;;4.67;;
10934;SDS011;5520;45.752;4.874;2022-11-20T07:41:10;5.13;;;4.27;;
10934;SDS011;5520;45.752;4.874;2022-11-20T07:43:38;8.53;;;5.23;;
10934;SDS011;5520;45.752;4.874;2022-11-20T07:46:07;5.93;;;5.33;;
10934;SDS011;5520;45.752;4.874;2022-11-20T07:48:35;8.37;;;4.60;;
10934;SDS011;5520;45.752;4.874;2022-11-20T07:51:03;8.10;;;5.33;;
10934;SDS011;5520;45.752;4.874;2022-11-20T07:53:31;5.60;;;4.73;;
10934;SDS011;5520;45.752;4.874;2022-11-20T07:55:59;5.70;;;4.60;;
10934;SDS011;5520;45.752;4.874;2022-11-20T07:58:30;7.07;;;4.13;;
10934;SDS011;5520;45.752;4.874;2022-11-20T08:01:02;4.83;;;4.33;;
10934;SDS011;5520;45.752;4.874;2022-11-20T08:03:30;12.47;;;7.70;;
10934;SDS011;5520;45.752;4.874;2022-11-20T08:05:58;10.83;;;7.10;;
10934;SDS011;5520;45.752;4.874;2022-11-20T08:08:26;9.33;;;5.10;;
10934;SDS011;5520;45.752;4.874;2022-11-20T08:10:58;9.03;;;4.33;;
10934;SDS011;5520;45.752;4.874;2022-11-20T08:13:49;7.67;;;4.63;;
10934;SDS011;5520;45.752;4.874;2022-11-20T08:16:34;6.77;;;4.43;;
10934;SDS011;5520;45.752;4.874;2022-11-20T08:19:03;8.13;;;4.10;;
10934;SDS011;5520;45.752;4.874;2022-11-20T08:21:31;5.53;;;4.10;;
10934;SDS011;5520;45.752;4.874;2022-11-20T08:24:04;5.23;;;3.30;;
10934;SDS011;5520;45.752;4.874;2022-11-20T08:26:32;9.90;;;3.60;;
10934;SDS011;5520;45.752;4.874;2022-11-20T08:29:02;4.70;;;3.20;;
10934;SDS011;5520;45.752;4.874;2022-11-20T08:31:30;4.83;;;3.30;;
10934;SDS011;5520;45.752;4.874;2022-11-20T08:33:58;3.83;;;2.33;;
10934;SDS011;5520;45.752;4.874;2022-11-20T08:36:32;3.50;;;2.70;;
10934;SDS011;5520;45.752;4.874;2022-11-20T08:39:00;4.53;;;2.77;;
10934;SDS011;5520;45.752;4.874;2022-11-20T08:41:29;6.93;;;2.47;;
10934;SDS011;5520;45.752;4.874;2022-11-20T08:44:00;6.03;;;1.90;;
10934;SDS011;5520;45.752;4.874;2022-11-20T08:46:31;3.53;;;2.17;;
10934;SDS011;5520;45.752;4.874;2022-11-20T08:49:00;11.93;;;1.90;;
10934;SDS011;5520;45.752;4.874;2022-11-20T08:51:28;2.80;;;2.00;;
10934;SDS011;5520;45.752;4.874;2022-11-20T08:53:56;5.83;;;1.67;;
10934;SDS011;5520;45.752;4.874;2022-11-20T08:56:24;4.40;;;2.10;;
10934;SDS011;5520;45.752;4.874;2022-11-20T08:58:52;5.93;;;1.70;;
10934;SDS011;5520;45.752;4.874;2022-11-20T09:01:42;6.23;;;2.10;;
10934;SDS011;5520;45.752;4.874;2022-11-20T09:04:10;7.50;;;2.00;;
10934;SDS011;5520;45.752;4.874;2022-11-20T09:06:40;3.97;;;1.57;;
10934;SDS011;5520;45.752;4.874;2022-11-20T09:09:08;2.70;;;2.03;;
10934;SDS011;5520;45.752;4.874;2022-11-20T09:11:36;6.13;;;2.33;;
10934;SDS011;5520;45.752;4.874;2022-11-20T09:14:04;5.57;;;1.80;;
10934;SDS011;5520;45.752;4.874;2022-11-20T09:16:32;4.13;;;2.20;;
10934;SDS011;5520;45.752;4.874;2022-11-20T09:19:02;4.97;;;2.20;;
10934;SDS011;5520;45.752;4.874;2022-11-20T09:21:50;6.80;;;2.10;;
10934;SDS011;5520;45.752;4.874;2022-11-20T09:24:25;5.23;;;2.00;;
10934;SDS011;5520;45.752;4.874;2022-11-20T09:26:53;7.10;;;1.93;;
10934;SDS011;5520;45.752;4.874;2022-11-20T09:29:21;3.97;;;1.70;;
10934;SDS011;5520;45.752;4.874;2022-11-20T09:31:49;4.20;;;1.90;;
10934;SDS011;5520;45.752;4.874;2022-11-20T09:34:19;4.20;;;2.20;;
10934;SDS011;5520;45.752;4.874;2022-11-20T09:36:47;3.43;;;1.50;;
10934;SDS011;5520;45.752;4.874;2022-11-20T09:39:15;5.10;;;1.80;;
10934;SDS011;5520;45.752;4.874;2022-11-20T09:44:33;2.67;;;1.50;;
10934;SDS011;5520;45.752;4.874;2022-11-20T09:47:07;4.47;;;1.80;;
10934;SDS011;5520;45.752;4.874;2022-11-20T09:49:39;5.07;;;2.00;;
10934;SDS011;5520;45.752;4.874;2022-11-20T09:52:14;6.87;;;1.63;;
10934;SDS011;5520;45.752;4.874;2022-11-20T09:54:43;5.43;;;1.90;;
10934;SDS011;5520;45.752;4.874;2022-11-20T09:57:11;5.17;;;1.90;;
10934;SDS011;5520;45.752;4.874;2022-11-20T09:59:40;4.43;;;2.00;;
10934;SDS011;5520;45.752;4.874;2022-11-20T10:02:14;4.93;;;1.80;;
10934;SDS011;5520;45.752;4.874;2022-11-20T10:04:45;8.47;;;2.50;;
10934;SDS011;5520;45.752;4.874;2022-11-20T10:07:16;7.93;;;2.87;;
10934;SDS011;5520;45.752;4.874;2022-11-20T10:10:00;6.00;;;2.00;;
10934;SDS011;5520;45.752;4.874;2022-11-20T10:12:31;3.70;;;1.80;;
10934;SDS011;5520;45.752;4.874;2022-11-20T10:15:06;6.93;;;2.20;;
10934;SDS011;5520;45.752;4.874;2022-11-20T10:17:51;5.70;;;1.80;;
10934;SDS011;5520;45.752;4.874;2022-11-20T10:20:25;7.03;;;1.87;;
10934;SDS011;5520;45.752;4.874;2022-11-20T10:23:00;3.83;;;1.87;;
10934;SDS011;5520;45.752;4.874;2022-11-20T10:25:33;3.27;;;1.60;;
10934;SDS011;5520;45.752;4.874;2022-11-20T10:30:51;3.93;;;1.90;;
10934;SDS011;5520;45.752;4.874;2022-11-20T10:33:23;3.57;;;1.70;;
10934;SDS011;5520;45.752;4.874;2022-11-20T10:36:00;4.87;;;1.50;;
10934;SDS011;5520;45.752;4.874;2022-11-20T10:38:34;3.37;;;1.47;;
10934;SDS011;5520;45.752;4.874;2022-11-20T10:41:04;4.37;;;1.63;;
10934;SDS011;5520;45.752;4.874;2022-11-20T10:43:51;1.87;;;1.63;;
10934;SDS011;5520;45.752;4.874;2022-11-20T10:46:20;3.93;;;1.43;;
10934;SDS011;5520;45.752;4.874;2022-11-20T10:48:50;7.30;;;1.40;;
10934;SDS011;5520;45.752;4.874;2022-11-20T10:51:26;2.47;;;1.63;;
10934;SDS011;5520;45.752;4.874;2022-11-20T10:53:56;3.13;;;1.40;;
10934;SDS011;5520;45.752;4.874;2022-11-20T10:56:27;5.03;;;2.40;;
10934;SDS011;5520;45.752;4.874;2022-11-20T10:59:10;2.83;;;1.70;;
10934;SDS011;5520;45.752;4.874;2022-11-20T11:01:40;3.90;;;1.70;;
10934;SDS011;5520;45.752;4.874;2022-11-20T11:06:56;4.07;;;1.73;;
10934;SDS011;5520;45.752;4.874;2022-11-20T11:09:27;5.47;;;2.17;;
10934;SDS011;5520;45.752;4.874;2022-11-20T11:11:59;11.73;;;2.20;;
10934;SDS011;5520;45.752;4.874;2022-11-20T11:14:41;6.87;;;1.80;;
10934;SDS011;5520;45.752;4.874;2022-11-20T11:17:18;2.97;;;1.57;;
10934;SDS011;5520;45.752;4.874;2022-11-20T11:19:56;4.67;;;1.60;;
10934;SDS011;5520;45.752;4.874;2022-11-20T11:22:25;3.53;;;1.80;;
10934;SDS011;5520;45.752;4.874;2022-11-20T11:24:55;7.47;;;1.90;;
10934;SDS011;5520;45.752;4.874;2022-11-20T11:27:23;3.23;;;1.90;;
10934;SDS011;5520;45.752;4.874;2022-11-20T11:30:00;5.50;;;1.80;;
10934;SDS011;5520;45.752;4.874;2022-11-20T11:32:29;4.60;;;1.40;;
10934;SDS011;5520;45.752;4.874;2022-11-20T11:35:00;4.37;;;1.90;;
10934;SDS011;5520;45.752;4.874;2022-11-20T11:37:32;4.53;;;1.60;;
10934;SDS011;5520;45.752;4.874;2022-11-20T11:40:01;2.00;;;1.60;;
10934;SDS011;5520;45.752;4.874;2022-11-20T11:42:52;5.70;;;1.60;;
10934;SDS011;5520;45.752;4.874;2022-11-20T11:45:20;3.33;;;1.70;;
10934;SDS011;5520;45.752;4.874;2022-11-20T11:47:48;4.77;;;1.70;;
10934;SDS011;5520;45.752;4.874;2022-11-20T11:50:17;1.77;;;1.30;;
10934;SDS011;5520;45.752;4.874;2022-11-20T11:52:48;2.40;;;1.40;;
10934;SDS011;5520;45.752;4.874;2022-11-20T11:55:18;1.33;;;1.23;;
10934;SDS011;5520;45.752;4.874;2022-11-20T11:57:52;8.97;;;2.60;;
10934;SDS011;5520;45.752;4.874;2022-11-20T12:00:22;6.23;;;2.63;;
10934;SDS011;5520;45.752;4.874;2022-11-20T12:02:57;3.67;;;2.20;;
10934;SDS011;5520;45.752;4.874;2022-11-20T12:05:29;4.70;;;1.50;;
10934;SDS011;5520;45.752;4.874;2022-11-20T12:08:01;3.30;;;1.50;;
10934;SDS011;5520;45.752;4.874;2022-11-20T12:10:39;7.13;;;2.70;;
10934;SDS011;5520;45.752;4.874;2022-11-20T12:13:12;4.27;;;2.80;;
10934;SDS011;5520;45.752;4.874;2022-11-20T12:15:44;4.20;;;1.77;;
10934;SDS011;5520;45.752;4.874;2022-11-20T12:18:14;2.67;;;2.13;;
10934;SDS011;5520;45.752;4.874;2022-11-20T12:20:44;5.57;;;1.80;;
10934;SDS011;5520;45.752;4.874;2022-11-20T12:23:16;3.27;;;1.57;;
10934;SDS011;5520;45.752;4.874;2022-11-20T12:25:46;5.27;;;1.60;;
10934;SDS011;5520;45.752;4.874;2022-11-20T12:28:22;2.40;;;1.57;;
10934;SDS011;5520;45.752;4.874;2022-11-20T12:31:09;2.90;;;1.90;;
10934;SDS011;5520;45.752;4.874;2022-11-20T12:33:43;4.10;;;1.90;;
10934;SDS011;5520;45.752;4.874;2022-11-20T12:36:17;4.57;;;1.63;;
10934;SDS011;5520;45.752;4.874;2022-11-20T12:38:58;4.07;;;1.50;;
10934;SDS011;5520;45.752;4.874;2022-11-20T12:41:36;4.63;;;2.10;;
10934;SDS011;5520;45.752;4.874;2022-11-20T12:44:30;4.43;;;2.27;;
10934;SDS011;5520;45.752;4.874;2022-11-20T12:47:21;4.87;;;2.80;;
10934;SDS011;5520;45.752;4.874;2022-11-20T12:49:53;2.33;;;1.77;;
10934;SDS011;5520;45.752;4.874;2022-11-20T12:52:37;4.00;;;1.70;;
10934;SDS011;5520;45.752;4.874;2022-11-20T12:55:15;2.50;;;1.47;;
10934;SDS011;5520;45.752;4.874;2022-11-20T12:57:46;4.07;;;2.50;;
10934;SDS011;5520;45.752;4.874;2022-11-20T13:00:17;6.23;;;1.90;;
10934;SDS011;5520;45.752;4.874;2022-11-20T13:02:58;5.83;;;1.70;;
10934;SDS011;5520;45.752;4.874;2022-11-20T13:05:30;5.13;;;2.90;;
10934;SDS011;5520;45.752;4.874;2022-11-20T13:07:59;8.37;;;4.97;;
10934;SDS011;5520;45.752;4.874;2022-11-20T13:10:31;5.63;;;2.20;;
10934;SDS011;5520;45.752;4.874;2022-11-20T13:13:01;2.00;;;1.40;;
10934;SDS011;5520;45.752;4.874;2022-11-20T13:15:43;4.40;;;2.10;;
10934;SDS011;5520;45.752;4.874;2022-11-20T13:18:13;4.00;;;1.60;;
10934;SDS011;5520;45.752;4.874;2022-11-20T13:20:42;3.43;;;1.57;;
10934;SDS011;5520;45.752;4.874;2022-11-20T13:23:10;2.47;;;1.37;;
10934;SDS011;5520;45.752;4.874;2022-11-20T13:25:40;5.87;;;1.70;;
10934;SDS011;5520;45.752;4.874;2022-11-20T13:30:51;2.30;;;1.40;;
10934;SDS011;5520;45.752;4.874;2022-11-20T13:33:28;6.30;;;1.67;;
10934;SDS011;5520;45.752;4.874;2022-11-20T13:35:57;2.90;;;1.40;;
10934;SDS011;5520;45.752;4.874;2022-11-20T13:38:25;1.20;;;1.00;;
10934;SDS011;5520;45.752;4.874;2022-11-20T13:41:00;3.27;;;1.50;;
10934;SDS011;5520;45.752;4.874;2022-11-20T13:43:49;2.83;;;1.50;;
10934;SDS011;5520;45.752;4.874;2022-11-20T13:46:18;4.30;;;2.17;;
10934;SDS011;5520;45.752;4.874;2022-11-20T13:48:50;1.23;;;1.20;;
10934;SDS011;5520;45.752;4.874;2022-11-20T13:51:24;3.13;;;2.03;;
10934;SDS011;5520;45.752;4.874;2022-11-20T13:56:46;3.90;;;2.23;;
10934;SDS011;5520;45.752;4.874;2022-11-20T13:59:21;3.30;;;2.17;;
10934;SDS011;5520;45.752;4.874;2022-11-20T14:01:54;5.90;;;2.13;;
10934;SDS011;5520;45.752;4.874;2022-11-20T14:04:25;2.33;;;1.20;;
10934;SDS011;5520;45.752;4.874;2022-11-20T14:06:53;1.90;;;1.70;;
10934;SDS011;5520;45.752;4.874;2022-11-20T14:09:26;3.20;;;1.50;;
10934;SDS011;5520;45.752;4.874;2022-11-20T14:11:55;3.60;;;2.00;;
10934;SDS011;5520;45.752;4.874;2022-11-20T14:14:24;5.77;;;1.60;;
10934;SDS011;5520;45.752;4.874;2022-11-20T14:16:53;3.07;;;1.97;;
10934;SDS011;5520;45.752;4.874;2022-11-20T14:19:32;3.17;;;1.77;;
10934;SDS011;5520;45.752;4.874;2022-11-20T14:22:08;4.23;;;1.27;;
10934;SDS011;5520;45.752;4.874;2022-11-20T14:24:36;1.57;;;1.30;;
10934;SDS011;5520;45.752;4.874;2022-11-20T14:27:09;4.17;;;2.03;;
10934;SDS011;5520;45.752;4.874;2022-11-20T14:29:38;4.63;;;1.90;;
10934;SDS011;5520;45.752;4.874;2022-11-20T14:32:08;2.43;;;2.23;;
10934;SDS011;5520;45.752;4.874;2022-11-20T14:34:37;3.30;;;1.50;;
10934;SDS011;5520;45.752;4.874;2022-11-20T14:37:10;4.10;;;1.57;;
10934;SDS011;5520;45.752;4.874;2022-11-20T14:39:46;1.73;;;1.40;;
10934;SDS011;5520;45.752;4.874;2022-11-20T14:42:16;5.20;;;1.93;;
10934;SDS011;5520;45.752;4.874;2022-11-20T14:44:45;1.77;;;1.33;;
10934;SDS011;5520;45.752;4.874;2022-11-20T14:47:13;2.80;;;1.40;;
10934;SDS011;5520;45.752;4.874;2022-11-20T14:49:42;2.10;;;1.63;;
10934;SDS011;5520;45.752;4.874;2022-11-20T14:52:11;3.63;;;1.83;;
10934;SDS011;5520;45.752;4.874;2022-11-20T14:54:43;3.53;;;1.87;;
10934;SDS011;5520;45.752;4.874;2022-11-20T15:00:07;2.97;;;1.70;;
10934;SDS011;5520;45.752;4.874;2022-11-20T15:02:38;6.00;;;1.63;;
10934;SDS011;5520;45.752;4.874;2022-11-20T15:05:06;6.33;;;3.07;;
10934;SDS011;5520;45.752;4.874;2022-11-20T15:07:35;3.77;;;2.70;;
10934;SDS011;5520;45.752;4.874;2022-11-20T15:10:04;2.73;;;2.03;;
10934;SDS011;5520;45.752;4.874;2022-11-20T15:12:32;2.17;;;1.70;;
10934;SDS011;5520;45.752;4.874;2022-11-20T15:15:01;4.93;;;1.60;;
10934;SDS011;5520;45.752;4.874;2022-11-20T15:17:31;4.43;;;2.20;;
10934;SDS011;5520;45.752;4.874;2022-11-20T15:19:59;1.70;;;1.43;;
10934;SDS011;5520;45.752;4.874;2022-11-20T15:22:27;2.73;;;1.50;;
10934;SDS011;5520;45.752;4.874;2022-11-20T15:24:55;5.33;;;2.73;;
10934;SDS011;5520;45.752;4.874;2022-11-20T15:27:23;1.97;;;1.80;;
10934;SDS011;5520;45.752;4.874;2022-11-20T15:29:51;3.73;;;1.57;;
10934;SDS011;5520;45.752;4.874;2022-11-20T15:32:19;2.93;;;2.20;;
10934;SDS011;5520;45.752;4.874;2022-11-20T15:34:49;3.33;;;2.13;;
10934;SDS011;5520;45.752;4.874;2022-11-20T15:37:16;3.27;;;1.83;;